createdAt,value
2022-11-01T05:56:29.757Z,13.06
2022-11-01T06:01:50.834Z,13.01
2022-11-01T06:07:12.043Z,12.93
2022-11-01T06:12:33.068Z,12.92
2022-11-01T06:17:58.454Z,12.95
2022-11-01T06:23:19.454Z,13.00
2022-11-01T06:28:40.510Z,12.97
2022-11-01T06:34:01.088Z,13.07
2022-11-01T06:39:21.652Z,13.06
2022-11-01T06:44:42.661Z,13.14
2022-11-01T06:50:04.619Z,13.28
2022-11-01T06:55:27.216Z,13.38
2022-11-01T07:00:47.964Z,13.59
2022-11-01T07:06:08.801Z,13.84
2022-11-01T07:11:31.693Z,14.04
2022-11-01T07:16:53.162Z,14.22
2022-11-01T07:22:14.818Z,14.23
2022-11-01T07:27:36.847Z,14.19
2022-11-01T07:33:04.173Z,14.38
2022-11-01T07:38:25.502Z,14.59
2022-11-01T07:43:46.270Z,14.55
2022-11-01T07:49:07.183Z,14.57
2022-11-01T07:54:28.016Z,14.96
2022-11-01T07:59:48.827Z,15.30
2022-11-01T08:05:11.302Z,15.56
2022-11-01T08:10:33.137Z,15.79
2022-11-01T08:15:54.290Z,16.05
2022-11-01T08:21:18.770Z,15.97
2022-11-01T08:26:39.693Z,15.74
2022-11-01T08:32:00.499Z,15.86
2022-11-01T08:37:21.183Z,16.07
2022-11-01T08:42:42.066Z,15.75
2022-11-01T08:48:05.001Z,15.66
2022-11-01T08:53:26.108Z,15.32
2022-11-01T08:58:49.378Z,15.10
2022-11-01T09:04:10.462Z,14.92
2022-11-01T09:09:31.375Z,14.95
2022-11-01T09:14:52.569Z,15.08
2022-11-01T09:20:15.214Z,15.31
2022-11-01T09:25:36.985Z,15.79
2022-11-01T09:31:19.544Z,16.07
2022-11-01T09:36:41.569Z,16.14
2022-11-01T09:42:06.447Z,16.24
2022-11-01T09:47:29.981Z,16.36
2022-11-01T09:52:53.007Z,16.16
2022-11-01T09:58:28.355Z,16.26
2022-11-01T10:04:26.846Z,16.28
2022-11-01T10:10:02.510Z,16.35
2022-11-01T10:15:32.368Z,16.38
2022-11-01T10:20:55.800Z,16.26
2022-11-01T10:26:21.450Z,16.17
2022-11-01T10:31:46.328Z,16.15
2022-11-01T10:37:22.715Z,16.34
2022-11-01T10:42:43.802Z,16.92
2022-11-01T10:48:05.345Z,17.60
2022-11-01T10:53:31.479Z,18.15
2022-11-01T10:59:04.487Z,18.67
2022-11-01T11:04:26.227Z,19.04
2022-11-01T11:09:50.162Z,18.89
2022-11-01T11:15:19.631Z,18.51
2022-11-01T11:20:41.129Z,18.15
2022-11-01T11:26:05.067Z,17.70
2022-11-01T11:31:32.614Z,17.42
2022-11-01T11:36:55.103Z,17.33
2022-11-01T11:42:16.071Z,17.23
2022-11-01T11:47:38.216Z,17.28
2022-11-01T11:53:15.602Z,17.36
2022-11-01T11:58:43.088Z,17.48
2022-11-01T12:04:19.145Z,17.52
2022-11-01T12:09:46.870Z,17.35
2022-11-01T12:15:29.934Z,17.44
2022-11-01T12:20:52.773Z,17.83
2022-11-01T12:26:16.855Z,17.97
2022-11-01T12:31:41.666Z,17.79
2022-11-01T12:37:41.485Z,17.65
2022-11-01T12:43:16.531Z,17.44
2022-11-01T12:48:43.072Z,17.37
2022-11-01T12:54:15.014Z,17.33
2022-11-01T12:59:38.665Z,17.16
2022-11-01T13:05:30.561Z,17.21
2022-11-01T13:10:52.844Z,17.37
2022-11-01T13:16:27.738Z,17.55
2022-11-01T13:22:38.019Z,17.63
2022-11-01T13:28:36.039Z,17.66
2022-11-01T13:34:33.576Z,17.46
2022-11-01T13:39:54.651Z,17.56
2022-11-01T13:45:30.599Z,17.73
2022-11-01T13:51:11.533Z,18.03
2022-11-01T13:56:40.203Z,18.11
2022-11-01T14:02:22.977Z,17.92
2022-11-01T14:07:43.964Z,17.64
2022-11-01T14:13:07.864Z,17.33
2022-11-01T14:18:49.884Z,17.10
2022-11-01T14:24:34.830Z,16.96
2022-11-01T14:29:56.819Z,16.97
2022-11-01T14:35:37.992Z,16.95
2022-11-01T14:41:00.317Z,16.98
2022-11-01T14:46:31.541Z,16.99
2022-11-01T14:52:02.786Z,16.97
2022-11-01T14:57:29.369Z,16.95
2022-11-01T15:02:50.688Z,16.90
2022-11-01T15:08:22.456Z,16.74
2022-11-01T15:13:45.602Z,16.60
2022-11-01T15:19:14.922Z,16.44
2022-11-01T15:24:36.010Z,16.30
2022-11-01T15:29:56.937Z,16.13
2022-11-01T15:35:26.374Z,15.98
2022-11-01T15:40:50.389Z,15.89
2022-11-01T15:46:11.492Z,15.79
2022-11-01T15:51:37.558Z,15.68
2022-11-01T15:57:03.253Z,15.58
2022-11-01T16:02:35.287Z,15.49
2022-11-01T16:07:56.559Z,15.39
2022-11-01T16:13:19.907Z,15.32
2022-11-01T16:18:45.126Z,15.16
2022-11-01T16:24:09.598Z,15.10
2022-11-01T16:29:42.673Z,15.04
2022-11-01T16:35:29.508Z,14.96
2022-11-01T16:40:54.996Z,14.86
2022-11-01T16:46:16.119Z,14.79
2022-11-01T16:51:36.986Z,14.68
2022-11-01T16:56:58.685Z,14.60
2022-11-01T17:02:23.782Z,14.59
2022-11-01T17:07:45.563Z,14.55
2022-11-01T17:13:07.934Z,14.55
2022-11-01T17:18:31.991Z,14.51
2022-11-01T17:23:53.277Z,14.43
2022-11-01T17:29:16.993Z,14.48
2022-11-01T17:34:38.879Z,14.53
2022-11-01T17:40:01.017Z,14.52
2022-11-01T17:45:22.855Z,14.49
2022-11-01T17:50:44.514Z,14.50
2022-11-01T17:56:06.462Z,14.46
2022-11-01T18:01:28.652Z,14.43
2022-11-01T18:06:50.501Z,14.45
2022-11-01T18:12:39.477Z,14.36
2022-11-01T18:18:15.589Z,14.33
2022-11-01T18:23:36.889Z,14.35
2022-11-01T18:29:10.259Z,14.36
2022-11-01T18:34:50.077Z,14.25
2022-11-01T18:40:11.490Z,14.16
2022-11-01T18:45:57.699Z,14.07
2022-11-01T18:51:26.616Z,14.04
2022-11-01T18:56:51.206Z,14.01
2022-11-01T19:02:12.406Z,13.94
2022-11-01T19:07:57.118Z,13.85
2022-11-01T19:13:23.730Z,13.70
2022-11-01T19:18:46.176Z,13.61
2022-11-01T19:24:29.771Z,13.53
2022-11-01T19:29:55.381Z,13.44
2022-11-01T19:35:22.084Z,13.41
2022-11-01T19:40:44.126Z,13.38
2022-11-01T19:46:04.935Z,13.26
2022-11-01T19:51:26.645Z,13.16
2022-11-01T19:56:47.630Z,13.04
2022-11-01T20:02:22.582Z,13.00
2022-11-01T20:07:43.535Z,13.00
2022-11-01T20:13:04.780Z,12.90
2022-11-01T20:18:26.993Z,12.77
2022-11-01T20:23:48.336Z,12.68
2022-11-01T20:29:09.565Z,12.64
2022-11-01T20:34:30.534Z,12.64
2022-11-01T20:39:51.640Z,12.61
2022-11-01T20:45:12.567Z,12.53
2022-11-01T20:50:33.999Z,12.39
2022-11-01T20:55:54.831Z,12.29
2022-11-01T21:01:16.271Z,12.22
2022-11-01T21:06:37.211Z,12.10
2022-11-01T21:11:59.043Z,11.99
2022-11-01T21:17:20.345Z,11.85
2022-11-01T21:22:41.283Z,11.74
2022-11-01T21:28:12.108Z,11.63
2022-11-01T21:33:41.665Z,11.55
2022-11-01T21:39:11.187Z,11.53
2022-11-01T21:44:39.743Z,11.40
2022-11-01T21:50:00.802Z,11.26
2022-11-01T21:55:21.684Z,11.25
2022-11-01T22:00:42.226Z,11.15
2022-11-01T22:06:03.115Z,11.06
2022-11-01T22:11:26.116Z,10.99
2022-11-01T22:16:50.109Z,10.95
2022-11-01T22:22:11.138Z,10.83
